createdAt,value
2022-07-25T00:01:47.141Z,17.10
2022-07-25T00:04:14.980Z,17.10
2022-07-25T00:06:42.417Z,17.10
2022-07-25T00:09:09.539Z,17.10
2022-07-25T00:11:36.492Z,17.10
2022-07-25T00:14:04.510Z,17.00
2022-07-25T00:16:31.678Z,17.00
2022-07-25T00:18:58.675Z,17.00
2022-07-25T00:21:25.577Z,17.00
2022-07-25T00:23:52.624Z,17.00
2022-07-25T00:26:19.775Z,17.00
2022-07-25T00:28:46.749Z,17.00
2022-07-25T00:31:13.702Z,17.10
2022-07-25T00:33:41.148Z,17.10
2022-07-25T00:36:08.801Z,17.10
2022-07-25T00:38:35.928Z,17.10
2022-07-25T00:41:03.638Z,17.10
2022-07-25T00:43:30.790Z,17.10
2022-07-25T00:45:59.884Z,17.10
2022-07-25T00:48:28.598Z,17.10
2022-07-25T00:50:55.876Z,17.10
2022-07-25T00:53:23.205Z,17.10
2022-07-25T00:55:50.237Z,17.10
2022-07-25T00:58:19.222Z,17.20
2022-07-25T01:00:46.657Z,17.20
2022-07-25T01:03:13.735Z,17.10
2022-07-25T01:05:40.811Z,17.20
2022-07-25T01:08:08.110Z,17.20
2022-07-25T01:10:35.355Z,17.20
2022-07-25T01:13:02.655Z,17.20
2022-07-25T01:15:29.793Z,17.20
2022-07-25T01:17:56.959Z,17.10
2022-07-25T01:20:25.660Z,17.20
2022-07-25T01:22:53.010Z,17.10
2022-07-25T01:25:20.285Z,17.10
2022-07-25T01:27:51.417Z,17.10
2022-07-25T01:30:22.022Z,17.10
2022-07-25T01:32:48.868Z,17.10
2022-07-25T01:35:15.827Z,17.10
2022-07-25T01:37:45.461Z,17.10
2022-07-25T01:40:13.737Z,17.10
2022-07-25T01:42:40.770Z,17.10
2022-07-25T01:45:08.059Z,17.10
2022-07-25T01:47:34.993Z,17.10
2022-07-25T01:50:02.074Z,17.10
2022-07-25T01:52:29.301Z,17.10
2022-07-25T01:54:56.497Z,17.10
2022-07-25T01:57:24.365Z,17.10
2022-07-25T01:59:58.017Z,17.10
2022-07-25T02:02:24.968Z,17.10
2022-07-25T02:04:52.036Z,17.10
2022-07-25T02:07:18.998Z,17.10
2022-07-25T02:09:46.036Z,17.10
2022-07-25T02:12:13.128Z,17.00
2022-07-25T02:14:40.165Z,17.10
2022-07-25T02:17:07.205Z,17.00
2022-07-25T02:19:34.436Z,17.00
2022-07-25T02:22:01.393Z,17.00
2022-07-25T02:24:28.293Z,17.00
2022-07-25T02:26:55.183Z,16.90
2022-07-25T02:29:22.336Z,16.90
2022-07-25T02:31:49.451Z,16.90
2022-07-25T02:34:16.395Z,16.90
2022-07-25T02:36:43.574Z,16.90
2022-07-25T02:39:10.549Z,16.80
2022-07-25T02:41:37.592Z,16.80
2022-07-25T02:44:05.613Z,16.80
2022-07-25T02:46:33.176Z,16.70
2022-07-25T02:49:00.381Z,16.70
2022-07-25T02:51:27.485Z,16.70
2022-07-25T02:54:09.057Z,16.70
2022-07-25T02:56:36.250Z,16.70
2022-07-25T02:59:03.425Z,16.60
2022-07-25T03:01:30.457Z,16.60
2022-07-25T03:03:57.557Z,16.60
2022-07-25T03:06:24.642Z,16.60
2022-07-25T03:08:51.519Z,16.60
2022-07-25T03:11:18.648Z,16.60
2022-07-25T03:13:45.930Z,16.60
2022-07-25T03:16:12.922Z,16.60
2022-07-25T03:18:39.912Z,16.60
2022-07-25T03:21:07.324Z,16.70
2022-07-25T03:23:34.228Z,16.70
2022-07-25T03:26:02.175Z,16.70
2022-07-25T03:28:29.117Z,16.60
2022-07-25T03:30:56.169Z,16.70
2022-07-25T03:33:23.024Z,16.70
2022-07-25T03:35:50.024Z,16.70
2022-07-25T03:38:17.019Z,16.70
2022-07-25T03:40:43.926Z,16.70
2022-07-25T03:43:10.819Z,16.70
2022-07-25T03:45:38.039Z,16.70
2022-07-25T03:48:05.206Z,16.70
2022-07-25T03:50:32.300Z,16.70
2022-07-25T03:52:59.284Z,16.70
2022-07-25T03:55:26.323Z,16.60
2022-07-25T03:57:53.201Z,16.60
2022-07-25T04:00:20.201Z,16.60
2022-07-25T04:02:47.367Z,16.60
2022-07-25T04:05:14.477Z,16.60
2022-07-25T04:07:41.358Z,16.60
2022-07-25T04:10:08.730Z,16.60
2022-07-25T04:12:35.644Z,16.60
2022-07-25T04:15:02.662Z,16.60
2022-07-25T04:17:29.604Z,16.60
2022-07-25T04:19:57.389Z,16.60
2022-07-25T04:22:24.422Z,16.60
2022-07-25T04:24:51.587Z,16.60
2022-07-25T04:27:18.807Z,16.50
2022-07-25T04:29:46.052Z,16.60
2022-07-25T04:32:15.039Z,16.50
2022-07-25T04:34:43.925Z,16.50
2022-07-25T04:37:16.561Z,16.50
2022-07-25T04:39:43.912Z,16.50
2022-07-25T04:42:12.384Z,16.50
2022-07-25T04:44:39.416Z,16.40
2022-07-25T04:47:06.269Z,16.50
2022-07-25T04:49:33.381Z,16.50
2022-07-25T04:52:00.550Z,16.40
2022-07-25T04:54:27.594Z,16.40
2022-07-25T04:56:54.456Z,16.40
2022-07-25T04:59:21.400Z,16.40
2022-07-25T05:01:48.303Z,16.40
2022-07-25T05:04:15.450Z,16.40
2022-07-25T05:06:42.368Z,16.30
2022-07-25T05:09:09.395Z,16.30
2022-07-25T05:11:36.272Z,16.30
2022-07-25T05:14:03.798Z,16.30
2022-07-25T05:16:30.989Z,16.30
2022-07-25T05:18:57.984Z,16.30
2022-07-25T05:21:24.883Z,16.30
2022-07-25T05:23:51.793Z,16.30
2022-07-25T05:26:19.369Z,16.40
2022-07-25T05:28:46.306Z,16.40
2022-07-25T05:31:13.242Z,16.40
2022-07-25T05:33:40.197Z,16.40
2022-07-25T05:36:08.731Z,16.40
2022-07-25T05:38:35.841Z,16.40
2022-07-25T05:41:02.776Z,16.50
2022-07-25T05:43:29.658Z,16.50
2022-07-25T05:46:03.807Z,16.50
2022-07-25T05:48:31.119Z,16.50
2022-07-25T05:50:59.448Z,16.50
2022-07-25T05:53:26.430Z,16.50
2022-07-25T05:55:53.388Z,16.50
2022-07-25T05:58:20.306Z,16.50
2022-07-25T06:00:47.150Z,16.50
2022-07-25T06:03:14.314Z,16.50
2022-07-25T06:05:41.230Z,16.50
2022-07-25T06:08:08.238Z,16.50
2022-07-25T06:10:35.238Z,16.50
2022-07-25T06:13:04.328Z,16.60
2022-07-25T06:15:32.656Z,16.50
2022-07-25T06:18:00.744Z,16.60
2022-07-25T06:20:27.709Z,16.60
2022-07-25T06:22:54.630Z,16.60
2022-07-25T06:25:22.219Z,16.60
2022-07-25T06:27:49.158Z,16.70
2022-07-25T06:30:20.042Z,16.70
2022-07-25T06:32:48.255Z,16.70
2022-07-25T06:35:15.362Z,16.70
2022-07-25T06:37:42.301Z,16.70
2022-07-25T06:40:09.509Z,16.70
2022-07-25T06:42:40.103Z,16.70
2022-07-25T06:45:09.621Z,16.70
2022-07-25T06:47:37.218Z,16.70
2022-07-25T06:50:08.000Z,16.70
2022-07-25T06:52:38.287Z,16.70
2022-07-25T06:55:05.582Z,16.70
2022-07-25T06:57:32.495Z,16.80
2022-07-25T06:59:59.367Z,16.80
2022-07-25T07:02:26.268Z,16.80
2022-07-25T07:04:53.234Z,16.90
2022-07-25T07:07:20.313Z,17.00
2022-07-25T07:09:47.248Z,17.00
2022-07-25T07:12:14.168Z,17.10
2022-07-25T07:14:41.978Z,17.10
2022-07-25T07:17:08.919Z,17.10
2022-07-25T07:19:35.817Z,17.10
2022-07-25T07:22:03.147Z,17.20
2022-07-25T07:24:30.878Z,17.20
2022-07-25T07:26:58.710Z,17.10
2022-07-25T07:29:25.596Z,17.10
2022-07-25T07:31:53.071Z,17.10
2022-07-25T07:34:21.423Z,17.10
2022-07-25T07:36:48.716Z,17.10
2022-07-25T07:39:16.670Z,17.10
2022-07-25T07:41:43.868Z,17.10
2022-07-25T07:44:11.759Z,17.10
2022-07-25T07:46:38.769Z,17.00
2022-07-25T07:49:06.062Z,17.10
2022-07-25T07:51:33.201Z,17.10
2022-07-25T07:54:18.868Z,17.10
2022-07-25T07:56:45.891Z,17.10
2022-07-25T07:59:12.978Z,17.10
2022-07-25T08:01:39.834Z,17.20
2022-07-25T08:04:06.713Z,17.20
2022-07-25T08:06:33.691Z,17.20
2022-07-25T08:09:01.063Z,17.30
2022-07-25T08:11:28.146Z,17.40
2022-07-25T08:13:55.039Z,17.40
2022-07-25T08:16:21.976Z,17.50
2022-07-25T08:18:48.893Z,17.50
2022-07-25T08:21:15.878Z,17.60
2022-07-25T08:23:45.078Z,17.60
2022-07-25T08:26:14.222Z,17.60
2022-07-25T08:28:41.826Z,17.60
2022-07-25T08:31:08.924Z,17.60
2022-07-25T08:33:36.012Z,17.60
2022-07-25T08:36:03.336Z,17.70
2022-07-25T08:38:30.399Z,17.60
2022-07-25T08:40:58.902Z,17.60
2022-07-25T08:43:25.957Z,17.60
2022-07-25T08:45:54.372Z,17.60
2022-07-25T08:48:22.652Z,17.60
2022-07-25T08:50:50.595Z,17.70
2022-07-25T08:53:35.770Z,17.70
2022-07-25T08:56:13.346Z,17.70
2022-07-25T08:58:41.763Z,17.70
2022-07-25T09:01:11.770Z,17.80
2022-07-25T09:03:38.917Z,17.90
2022-07-25T09:06:18.999Z,17.90
2022-07-25T09:08:56.076Z,17.90
2022-07-25T09:11:27.594Z,17.90
2022-07-25T09:14:01.903Z,17.90
2022-07-25T09:16:29.795Z,17.90
2022-07-25T09:19:07.974Z,17.90
2022-07-25T09:21:34.936Z,17.90
2022-07-25T09:24:28.177Z,17.90
2022-07-25T09:26:56.053Z,18.00
2022-07-25T09:29:30.448Z,18.00
2022-07-25T09:31:58.251Z,18.10
2022-07-25T09:34:36.982Z,18.10
2022-07-25T09:37:04.547Z,18.10
2022-07-25T09:39:51.656Z,18.10
2022-07-25T09:42:25.684Z,18.20
2022-07-25T09:45:13.280Z,18.20
2022-07-25T09:51:02.577Z,18.20
2022-07-25T09:53:29.821Z,18.50
2022-07-25T09:55:59.311Z,18.80
2022-07-25T09:58:27.444Z,19.20
2022-07-25T10:00:57.435Z,19.70
2022-07-25T10:03:33.458Z,20.20
2022-07-25T10:06:12.752Z,20.70
2022-07-25T10:08:40.661Z,21.10
2022-07-25T10:11:27.965Z,21.30
2022-07-25T10:13:55.481Z,21.30
2022-07-25T10:16:26.330Z,21.20
2022-07-25T10:18:57.134Z,21.10
2022-07-25T10:21:27.644Z,21.00
2022-07-25T10:24:02.907Z,21.10
2022-07-25T10:26:30.553Z,21.10
2022-07-25T10:29:00.101Z,21.10
2022-07-25T10:31:33.129Z,21.20
2022-07-25T10:34:01.797Z,21.40
2022-07-25T10:36:42.176Z,21.70
2022-07-25T10:39:11.589Z,22.20
2022-07-25T10:41:43.538Z,22.80
2022-07-25T10:44:14.392Z,23.40
2022-07-25T10:46:44.222Z,24.00
2022-07-25T10:49:37.487Z,24.50
2022-07-25T10:52:04.696Z,24.70
2022-07-25T10:54:35.837Z,25.10
2022-07-25T10:57:04.364Z,25.50
2022-07-25T10:59:37.891Z,26.00
2022-07-25T11:02:07.123Z,26.40
2022-07-25T11:04:34.634Z,26.70
2022-07-25T11:07:12.704Z,27.10
2022-07-25T11:09:40.820Z,27.30
2022-07-25T11:12:08.410Z,27.50
2022-07-25T11:14:37.577Z,27.30
2022-07-25T11:17:20.143Z,27.10
2022-07-25T11:19:54.645Z,26.80
2022-07-25T11:22:21.637Z,26.40
2022-07-25T11:24:48.614Z,26.10
2022-07-25T11:27:26.451Z,26.00
2022-07-25T11:29:53.682Z,25.90
2022-07-25T11:32:20.766Z,25.80
2022-07-25T11:34:49.526Z,25.70
2022-07-25T11:37:18.395Z,25.60
2022-07-25T11:39:46.508Z,25.40
2022-07-25T11:42:17.789Z,25.30
2022-07-25T11:44:48.009Z,25.20
2022-07-25T11:47:27.236Z,25.20
2022-07-25T11:49:55.107Z,25.20
2022-07-25T11:52:23.517Z,25.40
2022-07-25T11:55:10.814Z,25.50
2022-07-25T11:57:40.018Z,25.90
2022-07-25T12:00:15.241Z,26.40
2022-07-25T12:02:42.262Z,27.00
2022-07-25T12:05:10.519Z,27.40
2022-07-25T12:07:42.492Z,27.80
2022-07-25T12:10:10.844Z,28.30
2022-07-25T12:12:44.614Z,28.80
2022-07-25T12:15:12.707Z,29.20
2022-07-25T12:17:40.342Z,29.60
2022-07-25T12:20:14.809Z,30.00
2022-07-25T12:22:42.162Z,30.30
2022-07-25T12:25:09.577Z,30.40
2022-07-25T12:27:36.720Z,30.20
2022-07-25T12:30:04.607Z,30.00
2022-07-25T12:32:38.076Z,29.50
2022-07-25T12:35:13.436Z,28.90
2022-07-25T12:37:41.311Z,28.40
2022-07-25T12:40:08.746Z,27.90
2022-07-25T12:42:42.137Z,27.50
2022-07-25T12:45:16.072Z,27.10
2022-07-25T12:47:44.051Z,26.90
2022-07-25T12:50:14.950Z,26.60
2022-07-25T12:52:45.377Z,26.30
2022-07-25T12:55:14.112Z,26.00
2022-07-25T12:57:43.695Z,25.70
2022-07-25T13:00:13.024Z,25.50
2022-07-25T13:02:40.698Z,25.30
2022-07-25T13:05:10.809Z,25.10
2022-07-25T13:07:41.695Z,24.90
2022-07-25T13:10:10.115Z,24.80
2022-07-25T13:12:37.329Z,24.60
2022-07-25T13:15:05.143Z,24.50
2022-07-25T13:17:33.512Z,24.30
2022-07-25T13:20:01.695Z,24.20
2022-07-25T13:22:30.159Z,24.40
2022-07-25T13:24:58.229Z,24.60
2022-07-25T13:27:25.135Z,24.90
2022-07-25T13:29:54.959Z,25.20
2022-07-25T13:32:22.363Z,25.50
2022-07-25T13:34:52.838Z,25.70
2022-07-25T13:37:21.227Z,25.90
2022-07-25T13:39:48.269Z,26.20
2022-07-25T13:42:15.345Z,26.40
2022-07-25T13:44:42.870Z,26.50
2022-07-25T13:47:09.908Z,26.60
2022-07-25T13:49:37.421Z,26.70
2022-07-25T13:52:04.597Z,26.70
2022-07-25T13:54:35.386Z,26.60
2022-07-25T13:57:03.697Z,26.50
2022-07-25T13:59:30.809Z,26.30
2022-07-25T14:01:57.910Z,26.10
2022-07-25T14:04:28.561Z,26.00
2022-07-25T14:06:57.715Z,25.80
2022-07-25T14:09:24.816Z,25.60
2022-07-25T14:11:52.602Z,25.50
2022-07-25T14:14:20.896Z,25.40
2022-07-25T14:16:48.978Z,25.20
2022-07-25T14:19:16.976Z,25.10
2022-07-25T14:21:43.931Z,25.00
2022-07-25T14:24:10.896Z,24.90
2022-07-25T14:26:38.333Z,24.80
2022-07-25T14:29:11.080Z,24.70
2022-07-25T14:31:39.527Z,24.50
2022-07-25T14:34:08.065Z,24.40
2022-07-25T14:36:36.466Z,24.30
2022-07-25T14:39:04.708Z,24.20
2022-07-25T14:41:31.963Z,24.10
2022-07-25T14:43:59.600Z,23.90
2022-07-25T14:46:26.593Z,23.90
2022-07-25T14:48:54.296Z,23.80
2022-07-25T14:51:21.381Z,23.80
2022-07-25T14:53:52.991Z,23.70
2022-07-25T14:56:20.739Z,23.60
2022-07-25T14:58:47.629Z,23.50
2022-07-25T15:01:18.794Z,23.40
2022-07-25T15:03:47.266Z,23.30
2022-07-25T15:06:17.393Z,23.20
2022-07-25T15:08:45.449Z,23.10
2022-07-25T15:11:12.339Z,22.90
2022-07-25T15:13:41.119Z,22.80
2022-07-25T15:16:08.303Z,22.70
2022-07-25T15:18:52.156Z,22.50
2022-07-25T15:21:22.375Z,22.40
2022-07-25T15:23:49.365Z,22.20
2022-07-25T15:26:16.299Z,22.20
2022-07-25T15:28:43.357Z,22.00
2022-07-25T15:31:10.425Z,21.90
2022-07-25T15:33:37.437Z,21.80
2022-07-25T15:36:04.643Z,21.70
2022-07-25T15:38:31.647Z,21.70
2022-07-25T15:40:58.960Z,21.60
2022-07-25T15:43:26.233Z,21.50
2022-07-25T15:45:53.469Z,21.40
2022-07-25T15:48:21.461Z,21.40
2022-07-25T15:50:49.745Z,21.30
2022-07-25T15:53:17.657Z,21.20
2022-07-25T15:55:44.678Z,21.10
2022-07-25T15:58:12.674Z,21.10
2022-07-25T16:00:40.091Z,20.90
2022-07-25T16:03:07.211Z,20.80
2022-07-25T16:05:34.186Z,20.70
2022-07-25T16:08:02.066Z,20.70
2022-07-25T16:10:29.960Z,20.60
2022-07-25T16:12:56.893Z,20.50
2022-07-25T16:15:24.439Z,20.40
2022-07-25T16:17:53.733Z,20.30
2022-07-25T16:20:20.783Z,20.20
2022-07-25T16:22:49.014Z,20.20
2022-07-25T16:25:17.372Z,20.20
2022-07-25T16:27:44.371Z,20.10
2022-07-25T16:30:13.071Z,20.10
2022-07-25T16:32:39.936Z,20.10
2022-07-25T16:35:07.458Z,20.10
2022-07-25T16:37:35.292Z,20.00
2022-07-25T16:40:03.537Z,20.10
2022-07-25T16:42:30.575Z,20.10
2022-07-25T16:44:58.195Z,20.10
2022-07-25T16:47:27.012Z,20.10
2022-07-25T16:49:54.071Z,20.10
2022-07-25T16:52:22.809Z,20.10
2022-07-25T16:54:49.883Z,20.10
2022-07-25T16:57:16.924Z,20.10
2022-07-25T16:59:44.072Z,20.10
2022-07-25T17:02:11.163Z,20.10
2022-07-25T17:04:38.760Z,20.00
2022-07-25T17:07:06.225Z,20.00
2022-07-25T17:09:33.219Z,19.90
2022-07-25T17:12:01.752Z,19.80
2022-07-25T17:14:30.298Z,19.80
2022-07-25T17:16:58.028Z,19.70
2022-07-25T17:19:25.282Z,19.60
2022-07-25T17:21:52.214Z,19.50
2022-07-25T17:24:19.164Z,19.50
2022-07-25T17:26:46.111Z,19.40
2022-07-25T17:29:15.774Z,19.40
2022-07-25T17:31:44.144Z,19.30
2022-07-25T17:34:11.517Z,19.30
2022-07-25T17:36:39.162Z,19.30
2022-07-25T17:39:08.309Z,19.30
2022-07-25T17:41:36.055Z,19.30
2022-07-25T17:44:09.927Z,19.30
2022-07-25T17:46:38.919Z,19.30
2022-07-25T17:49:05.964Z,19.30
2022-07-25T17:51:32.960Z,19.30
2022-07-25T17:54:00.123Z,19.30
2022-07-25T17:56:27.728Z,19.30
2022-07-25T17:58:54.661Z,19.30
2022-07-25T18:01:21.744Z,19.30
2022-07-25T18:03:50.331Z,19.30
2022-07-25T18:06:27.635Z,19.30
2022-07-25T18:08:56.709Z,19.20
2022-07-25T18:11:26.258Z,19.30
2022-07-25T18:13:56.136Z,19.30
2022-07-25T18:16:24.181Z,19.20
2022-07-25T18:18:54.443Z,19.20
2022-07-25T18:21:21.784Z,19.20
2022-07-25T18:23:51.072Z,19.10
2022-07-25T18:26:28.386Z,19.10
2022-07-25T18:28:58.184Z,19.00
2022-07-25T18:31:33.038Z,19.00
2022-07-25T18:34:10.259Z,19.00
2022-07-25T18:36:42.671Z,18.90
2022-07-25T18:39:20.701Z,19.00
2022-07-25T18:41:50.832Z,18.90
2022-07-25T18:44:45.063Z,18.90
2022-07-25T18:47:32.204Z,18.90
2022-07-25T18:50:05.726Z,18.90
2022-07-25T18:52:47.427Z,18.80
2022-07-25T18:55:31.054Z,18.80
2022-07-25T18:58:55.133Z,18.70
2022-07-25T19:04:19.326Z,18.50
2022-07-25T19:06:54.957Z,18.50
2022-07-25T19:09:21.994Z,18.40
2022-07-25T19:11:49.058Z,18.40
2022-07-25T19:14:16.083Z,18.30
2022-07-25T19:16:43.858Z,18.30
2022-07-25T19:19:10.968Z,18.20
2022-07-25T19:21:38.207Z,18.10
2022-07-25T19:24:07.475Z,18.10
2022-07-25T19:26:35.007Z,18.10
2022-07-25T19:29:01.982Z,18.10
2022-07-25T19:31:29.192Z,18.10
2022-07-25T19:33:56.173Z,18.00
2022-07-25T19:36:23.096Z,18.00
2022-07-25T19:38:49.974Z,18.00
2022-07-25T19:41:18.085Z,18.00
2022-07-25T19:43:46.274Z,17.90
2022-07-25T19:46:13.445Z,17.90
2022-07-25T19:48:40.478Z,17.90
2022-07-25T19:51:07.415Z,17.80
2022-07-25T19:53:34.323Z,17.80
2022-07-25T19:56:02.668Z,17.80
2022-07-25T19:58:29.685Z,17.70
2022-07-25T20:00:57.918Z,17.70
2022-07-25T20:03:24.883Z,17.70
2022-07-25T20:05:52.207Z,17.70
2022-07-25T20:08:19.666Z,17.70
2022-07-25T20:10:52.183Z,17.70
2022-07-25T20:13:33.770Z,17.70
2022-07-25T20:16:04.087Z,17.60
2022-07-25T20:18:45.898Z,17.60
2022-07-25T20:21:13.549Z,17.60
2022-07-25T20:23:43.875Z,17.50
2022-07-25T20:26:11.070Z,17.50
2022-07-25T20:28:38.241Z,17.50
2022-07-25T20:31:05.244Z,17.50
2022-07-25T20:33:32.603Z,17.40
2022-07-25T20:35:59.525Z,17.40
2022-07-25T20:38:28.582Z,17.30
2022-07-25T20:40:55.848Z,17.20
2022-07-25T20:43:22.764Z,17.10
2022-07-25T20:45:50.492Z,17.00
2022-07-25T20:48:18.123Z,16.90
2022-07-25T20:50:45.195Z,16.80
2022-07-25T20:53:12.664Z,16.70
2022-07-25T20:55:40.857Z,16.70
2022-07-25T20:58:07.865Z,16.60
2022-07-25T21:00:35.139Z,16.50
2022-07-25T21:03:02.739Z,16.40
2022-07-25T21:05:29.615Z,16.40
2022-07-25T21:07:56.744Z,16.30
2022-07-25T21:10:23.816Z,16.30
2022-07-25T21:12:52.283Z,16.30
2022-07-25T21:15:20.133Z,16.20
2022-07-25T21:17:47.019Z,16.20
2022-07-25T21:20:14.492Z,16.20
2022-07-25T21:22:42.251Z,16.20
2022-07-25T21:25:11.523Z,16.20
2022-07-25T21:27:39.162Z,16.10
2022-07-25T21:30:08.682Z,16.10
2022-07-25T21:32:35.660Z,16.10
2022-07-25T21:35:02.546Z,16.00
2022-07-25T21:37:29.438Z,16.00
2022-07-25T21:39:56.302Z,16.00
2022-07-25T21:42:23.183Z,16.00
2022-07-25T21:44:51.670Z,16.00
2022-07-25T21:47:18.567Z,16.00
2022-07-25T21:50:04.344Z,16.00
2022-07-25T21:52:34.764Z,16.00
2022-07-25T21:55:03.724Z,16.00
2022-07-25T21:57:31.143Z,15.90
2022-07-25T21:59:58.110Z,15.90
2022-07-25T22:02:25.072Z,15.90
2022-07-25T22:04:52.124Z,15.90
2022-07-25T22:07:19.207Z,15.90
2022-07-25T22:09:46.265Z,15.90
2022-07-25T22:12:14.424Z,15.90
2022-07-25T22:14:42.645Z,15.90
2022-07-25T22:17:10.240Z,15.90
2022-07-25T22:19:37.239Z,15.90
2022-07-25T22:22:05.451Z,15.90
2022-07-25T22:24:33.739Z,15.90
2022-07-25T22:27:02.014Z,15.90
2022-07-25T22:29:29.025Z,15.80
2022-07-25T22:31:55.961Z,15.80
2022-07-25T22:34:23.026Z,15.80
2022-07-25T22:36:49.967Z,15.80
2022-07-25T22:39:17.230Z,15.80
2022-07-25T22:41:44.464Z,15.80
2022-07-25T22:44:11.518Z,15.80
2022-07-25T22:46:38.465Z,15.80
2022-07-25T22:49:06.013Z,15.80
2022-07-25T22:51:33.238Z,15.80
2022-07-25T22:54:00.547Z,15.80
2022-07-25T22:56:27.694Z,15.70
2022-07-25T22:58:54.881Z,15.70
2022-07-25T23:01:23.509Z,15.70
2022-07-25T23:03:50.651Z,15.70
2022-07-25T23:06:18.626Z,15.70
2022-07-25T23:08:46.018Z,15.60
2022-07-25T23:11:12.912Z,15.60
2022-07-25T23:13:39.904Z,15.60
2022-07-25T23:16:10.406Z,15.60
2022-07-25T23:18:38.095Z,15.60
2022-07-25T23:21:05.276Z,15.60
2022-07-25T23:23:32.543Z,15.60
2022-07-25T23:25:59.568Z,15.60
2022-07-25T23:28:26.475Z,15.60
2022-07-25T23:30:53.515Z,15.50
2022-07-25T23:33:21.990Z,15.50
2022-07-25T23:35:52.590Z,15.50
2022-07-25T23:38:19.586Z,15.50
2022-07-25T23:40:46.479Z,15.50
2022-07-25T23:43:13.626Z,15.50
2022-07-25T23:45:44.234Z,15.50
2022-07-25T23:48:15.008Z,15.50
2022-07-25T23:50:41.875Z,15.50
2022-07-25T23:53:08.969Z,15.40
2022-07-25T23:55:35.887Z,15.50
2022-07-25T23:58:03.004Z,15.50
